Time;durP1;ratioP1;P1;durP2;ratioP2;P2;SDS_P1;SDS_P2;PMS_P1;PMS_P2;Temp;Humidity;BMP_temperature;BMP_pressure;BME280_temperature;BME280_humidity;BME280_pressure;Samples;Min_cycle;Max_cycle;Signal;HPM_P1;HPM_P2
2022/07/21 00:01:22;;;;;;;2.37;2.27;;;;;;;23.20;64.61;99499.88;5124149;27;20288;-67
2022/07/21 00:03:49;;;;;;;2.60;2.47;;;;;;;23.18;65.05;99503.56;5131029;27;20301;-67
2022/07/21 00:06:16;;;;;;;3.30;2.50;;;;;;;23.16;64.59;99501.09;5131298;27;20194;-68
2022/07/21 00:08:44;;;;;;;3.00;2.83;;;;;;;23.16;64.36;99508.94;5131150;27;20198;-67
2022/07/21 00:11:11;;;;;;;3.00;2.80;;;;;;;23.11;64.73;99503.22;5130551;27;20732;-68
2022/07/21 00:13:38;;;;;;;2.60;2.50;;;;;;;23.11;64.85;99494.56;5111171;28;20275;-67
2022/07/21 00:16:07;;;;;;;2.53;2.43;;;;;;;23.08;64.35;99503.47;5127475;28;20716;-67
2022/07/21 00:18:34;;;;;;;2.70;2.60;;;;;;;23.01;64.54;99505.75;5124750;28;20195;-67
2022/07/21 00:21:01;;;;;;;2.70;2.60;;;;;;;22.95;64.38;99506.25;5110678;28;20284;-68
2022/07/21 00:23:28;;;;;;;2.47;2.37;;;;;;;22.90;64.97;99504.94;5119179;28;20281;-67
2022/07/21 00:25:55;;;;;;;2.77;2.67;;;;;;;22.85;63.68;99505.31;5118866;28;20656;-67
2022/07/21 00:28:22;;;;;;;2.70;2.60;;;;;;;22.65;63.09;99473.84;5127360;28;20212;-67
2022/07/21 00:30:49;;;;;;;5.90;2.80;;;;;;;22.72;63.29;99495.94;5124869;28;20613;-67
2022/07/21 00:33:17;;;;;;;2.20;2.10;;;;;;;22.68;63.46;99490.09;5123009;27;20210;-67
2022/07/21 00:35:44;;;;;;;2.20;2.10;;;;;;;22.70;62.97;99496.06;5116995;27;20294;-67
2022/07/21 00:38:11;;;;;;;2.50;2.40;;;;;;;22.72;62.52;99481.09;5112527;28;20199;-67
2022/07/21 00:40:38;;;;;;;2.23;2.13;;;;;;;22.75;62.49;99491.28;5130287;27;20287;-68
2022/07/21 00:43:05;;;;;;;1.90;1.90;;;;;;;22.78;62.71;99485.81;5131381;28;20657;-67
2022/07/21 00:45:32;;;;;;;2.67;2.57;;;;;;;22.80;62.31;99483.09;5130923;27;20217;-68
2022/07/21 00:48:00;;;;;;;2.40;2.30;;;;;;;22.77;62.57;99480.72;5121248;27;20714;-68
2022/07/21 00:50:29;;;;;;;2.40;2.30;;;;;;;22.77;62.08;99489.41;5135204;27;20638;-67
2022/07/21 00:52:55;;;;;;;2.50;2.40;;;;;;;22.67;62.82;99478.00;5130376;27;20306;-68
2022/07/21 00:55:24;;;;;;;2.43;2.33;;;;;;;22.55;62.54;99473.72;5122956;27;20242;-67
2022/07/21 00:57:52;;;;;;;2.47;2.37;;;;;;;22.29;61.59;99449.63;5135094;27;20189;-67
2022/07/21 01:00:21;;;;;;;2.30;2.20;;;;;;;22.33;61.46;99468.47;5119614;27;20734;-67
2022/07/21 01:02:49;;;;;;;2.10;2.00;;;;;;;22.19;61.37;99481.78;5114259;28;20286;-67
2022/07/21 01:05:16;;;;;;;2.27;2.17;;;;;;;22.13;60.97;99474.44;5114400;28;20301;-67
2022/07/21 01:07:46;;;;;;;2.00;1.90;;;;;;;22.14;61.00;99481.28;5113750;27;20278;-67
2022/07/21 01:10:14;;;;;;;2.23;2.13;;;;;;;22.17;60.44;99478.44;5121915;27;20292;-67
2022/07/21 01:12:42;;;;;;;2.10;2.10;;;;;;;22.22;60.01;99484.16;5134504;27;20717;-67
2022/07/21 01:15:11;;;;;;;2.50;2.30;;;;;;;22.23;61.24;99485.84;5126919;27;20282;-67
2022/07/21 01:17:39;;;;;;;2.20;2.07;;;;;;;22.17;62.34;99494.09;5115366;27;20285;-67
2022/07/21 01:20:09;;;;;;;2.17;2.07;;;;;;;22.09;63.42;99491.25;5119247;27;20610;-67
2022/07/21 01:22:39;;;;;;;2.20;2.10;;;;;;;21.98;64.15;99482.47;5126024;27;20637;-67
2022/07/21 01:25:07;;;;;;;2.10;2.00;;;;;;;22.01;64.76;99491.00;5114021;28;20301;-67
2022/07/21 01:27:38;;;;;;;2.80;2.57;;;;;;;22.02;65.35;99490.06;5117711;27;20285;-67
2022/07/21 01:30:07;;;;;;;2.73;2.63;;;;;;;21.93;66.38;99487.22;5126062;27;20296;-67
2022/07/21 01:32:35;;;;;;;2.97;2.70;;;;;;;21.95;66.60;99490.53;5115063;27;20288;-67
2022/07/21 01:35:02;;;;;;;2.83;2.63;;;;;;;21.97;67.13;99493.84;5120103;27;20338;-67
2022/07/21 01:37:31;;;;;;;2.67;2.57;;;;;;;21.95;68.50;99485.31;5111918;28;20198;-67
2022/07/21 01:42:43;;;;;;;3.07;2.97;;;;;;;21.96;70.05;99486.13;5124815;27;20305;-67
2022/07/21 01:45:11;;;;;;;3.10;2.90;;;;;;;21.86;72.03;99478.13;5124449;27;20300;-67
2022/07/21 01:47:38;;;;;;;2.80;2.60;;;;;;;21.85;71.62;99475.63;5128175;27;20194;-67
2022/07/21 01:50:06;;;;;;;2.90;2.80;;;;;;;21.87;71.80;99471.16;5133316;27;20229;-67
2022/07/21 01:52:33;;;;;;;2.20;2.20;;;;;;;21.86;72.33;99470.31;5133922;27;20301;-68
2022/07/21 01:55:02;;;;;;;4.83;2.83;;;;;;;21.89;72.44;99475.31;5133754;27;20281;-67
2022/07/21 01:57:28;;;;;;;2.73;2.63;;;;;;;21.89;72.70;99475.31;5129561;27;20319;-67
2022/07/21 01:59:55;;;;;;;2.90;2.80;;;;;;;21.90;73.05;99471.78;5133125;27;20729;-67
2022/07/21 02:02:22;;;;;;;3.03;2.87;;;;;;;21.88;72.83;99467.56;5119773;27;20286;-68
2022/07/21 02:04:50;;;;;;;2.60;2.50;;;;;;;21.87;73.11;99466.72;5119005;27;20300;-68
2022/07/21 02:07:18;;;;;;;2.80;2.70;;;;;;;21.88;74.08;99473.63;5133506;27;20733;-68
2022/07/21 02:09:44;;;;;;;4.83;3.30;;;;;;;21.61;76.04;99470.47;5117738;27;20734;-68
2022/07/21 02:12:13;;;;;;;2.90;2.80;;;;;;;21.46;77.11;99471.59;5112805;28;20287;-68
2022/07/21 02:14:40;;;;;;;2.60;2.50;;;;;;;21.43;77.07;99482.25;5127663;27;20686;-68
2022/07/21 02:17:07;;;;;;;3.30;3.20;;;;;;;21.38;77.49;99469.56;5123929;27;20285;-68
2022/07/21 02:19:34;;;;;;;2.80;2.70;;;;;;;21.41;77.47;99473.72;5127947;27;20189;-68
2022/07/21 02:22:01;;;;;;;3.00;2.90;;;;;;;21.42;77.07;99470.19;5133389;27;20288;-68
2022/07/21 02:24:27;;;;;;;2.63;2.53;;;;;;;21.43;77.25;99466.59;5132812;27;20236;-68
2022/07/21 02:26:54;;;;;;;3.03;2.93;;;;;;;21.44;77.06;99465.66;5120403;27;20220;-68
2022/07/21 02:29:23;;;;;;;3.57;3.43;;;;;;;21.47;76.59;99462.84;5122893;27;20661;-68
2022/07/21 02:31:50;;;;;;;2.80;2.70;;;;;;;21.49;76.18;99462.75;5114003;27;20297;-68
2022/07/21 02:34:17;;;;;;;4.20;3.10;;;;;;;21.48;76.14;99459.28;5121116;27;20300;-68
2022/07/21 02:36:44;;;;;;;2.83;2.73;;;;;;;21.48;75.87;99461.91;5126216;27;20236;-68
2022/07/21 02:39:10;;;;;;;3.40;3.30;;;;;;;21.34;76.29;99451.63;5132502;27;20224;-68
2022/07/21 02:41:37;;;;;;;3.30;3.03;;;;;;;21.30;76.38;99458.00;5120784;27;20189;-68
2022/07/21 02:44:04;;;;;;;3.50;3.40;;;;;;;21.09;76.56;99456.94;5119803;27;20224;-68
2022/07/21 02:46:33;;;;;;;3.33;2.93;;;;;;;20.98;76.69;99451.66;5121577;27;20201;-68
2022/07/21 02:48:59;;;;;;;3.40;3.30;;;;;;;20.98;76.06;99454.28;5129989;27;20555;-68
2022/07/21 02:51:26;;;;;;;3.37;3.17;;;;;;;21.00;75.45;99452.41;5131026;27;20220;-68
2022/07/21 02:53:53;;;;;;;3.03;2.90;;;;;;;20.99;75.11;99464.59;5126447;27;20197;-68
2022/07/21 02:56:20;;;;;;;2.87;2.67;;;;;;;21.00;75.59;99462.84;5132121;27;20691;-68
2022/07/21 02:58:47;;;;;;;4.90;3.00;;;;;;;20.96;76.12;99462.22;5113482;27;20210;-68
2022/07/21 03:01:14;;;;;;;2.77;2.67;;;;;;;20.87;75.82;99461.06;5123339;27;20201;-68
2022/07/21 03:03:42;;;;;;;3.70;3.53;;;;;;;20.87;76.04;99453.25;5129874;27;20606;-68
2022/07/21 03:06:09;;;;;;;3.97;2.80;;;;;;;20.88;76.69;99459.31;5112182;28;20216;-68
2022/07/21 03:08:36;;;;;;;3.23;3.13;;;;;;;20.84;76.62;99463.91;5119984;27;20196;-68
2022/07/21 03:11:03;;;;;;;2.80;2.60;;;;;;;20.80;77.10;99467.69;5126274;27;20210;-68
2022/07/21 03:13:30;;;;;;;3.27;2.97;;;;;;;20.78;77.09;99464.34;5131468;27;20680;-68
2022/07/21 03:15:57;;;;;;;2.93;2.83;;;;;;;20.79;76.96;99460.81;5124955;27;20197;-68
2022/07/21 03:18:24;;;;;;;3.13;3.03;;;;;;;20.81;76.70;99464.13;5123895;27;20201;-68
2022/07/21 03:20:52;;;;;;;2.50;2.40;;;;;;;20.85;76.59;99464.75;5111378;28;20611;-68
2022/07/21 03:23:19;;;;;;;3.00;2.70;;;;;;;20.87;76.46;99468.91;5122659;27;20207;-68
2022/07/21 03:25:46;;;;;;;3.40;3.20;;;;;;;20.86;76.04;99462.03;5118685;27;20273;-68
2022/07/21 03:28:13;;;;;;;3.27;2.70;;;;;;;20.84;75.95;99458.69;5122409;27;20711;-68
2022/07/21 03:30:40;;;;;;;2.80;2.60;;;;;;;20.84;75.49;99453.47;5124646;27;20210;-68
2022/07/21 03:33:07;;;;;;;3.63;2.57;;;;;;;20.82;75.54;99450.16;5131806;27;20200;-68
2022/07/21 03:35:35;;;;;;;2.20;2.10;;;;;;;20.85;74.79;99457.75;5132091;27;20274;-68
2022/07/21 03:38:04;;;;;;;2.50;2.30;;;;;;;20.81;74.42;99458.06;5125193;27;20572;-68
2022/07/21 03:40:33;;;;;;;2.53;2.43;;;;;;;20.86;74.27;99456.84;5116838;27;20208;-68
2022/07/21 03:43:01;;;;;;;2.67;2.57;;;;;;;20.87;74.52;99452.47;5120876;27;20192;-68
2022/07/21 03:45:30;;;;;;;3.50;3.20;;;;;;;20.95;74.15;99460.53;5114412;27;20222;-68
2022/07/21 03:47:58;;;;;;;4.93;2.73;;;;;;;21.00;73.90;99460.22;5127477;27;20204;-68
2022/07/21 03:50:24;;;;;;;2.70;2.60;;;;;;;21.04;73.87;99459.03;5110946;27;20614;-68
2022/07/21 03:52:52;;;;;;;5.23;3.43;;;;;;;21.11;74.04;99465.50;5119136;27;20226;-68
2022/07/21 03:55:20;;;;;;;5.00;2.93;;;;;;;21.18;73.46;99471.94;5121977;27;20200;-68
2022/07/21 03:57:49;;;;;;;2.53;2.43;;;;;;;21.24;71.76;99471.50;5129269;27;20205;-68
2022/07/21 04:00:18;;;;;;;7.47;2.73;;;;;;;21.37;72.30;99467.91;5114092;27;20689;-68
2022/07/21 04:02:46;;;;;;;3.20;3.10;;;;;;;21.49;71.79;99468.75;5118394;27;20205;-68
2022/07/21 04:05:15;;;;;;;2.70;2.50;;;;;;;21.54;71.57;99461.44;5127933;27;21479;-68
2022/07/21 04:07:44;;;;;;;3.73;3.53;;;;;;;21.76;70.81;99473.72;5126347;27;20198;-68
2022/07/21 04:10:13;;;;;;;2.53;2.33;;;;;;;21.93;70.25;99482.00;5125127;27;20233;-68
2022/07/21 04:12:42;;;;;;;2.37;2.23;;;;;;;22.01;69.08;99460.50;5127992;28;20321;-68
2022/07/21 04:15:10;;;;;;;2.80;2.10;;;;;;;22.21;68.90;99469.44;5126591;28;20267;-68
2022/07/21 04:17:38;;;;;;;2.70;2.60;;;;;;;22.43;69.03;99474.66;5131089;28;20681;-68
2022/07/21 04:20:06;;;;;;;2.87;2.77;;;;;;;22.63;69.00;99473.09;5131231;27;20217;-68
2022/07/21 04:22:33;;;;;;;4.60;2.57;;;;;;;22.80;69.33;99473.47;5128783;27;20286;-68
2022/07/21 04:25:01;;;;;;;2.07;1.97;;;;;;;22.99;68.95;99473.69;5121315;27;20758;-68
2022/07/21 04:27:28;;;;;;;2.70;2.50;;;;;;;23.18;66.62;99473.03;5118444;27;20201;-68
2022/07/21 04:29:56;;;;;;;3.40;2.47;;;;;;;23.36;65.99;99470.72;5115318;28;20194;-68
2022/07/21 04:32:23;;;;;;;2.20;2.10;;;;;;;23.52;65.77;99476.38;5116575;27;20204;-68
2022/07/21 04:34:50;;;;;;;2.50;2.40;;;;;;;23.69;65.33;99465.34;5116042;27;20194;-68
2022/07/21 04:37:17;;;;;;;2.20;2.10;;;;;;;23.87;62.69;99471.69;5135341;27;20276;-67
2022/07/21 04:39:44;;;;;;;2.00;1.90;;;;;;;24.05;62.56;99469.28;5135451;27;20198;-68
2022/07/21 04:42:11;;;;;;;2.67;2.10;;;;;;;24.20;59.40;99467.19;5135069;27;20201;-68
2022/07/21 04:44:37;;;;;;;2.07;1.90;;;;;;;24.39;58.03;99462.03;5135555;27;20566;-68
2022/07/21 04:47:06;;;;;;;2.13;2.03;;;;;;;24.50;57.76;99448.81;5121369;27;20205;-68
2022/07/21 04:49:33;;;;;;;1.93;1.83;;;;;;;24.69;56.68;99448.88;5114120;28;20195;-68
2022/07/21 04:52:00;;;;;;;2.80;2.17;;;;;;;24.82;55.53;99454.75;5115582;27;20218;-68
2022/07/21 04:54:26;;;;;;;4.00;2.00;;;;;;;25.04;54.26;99465.00;5134779;27;20208;-68
2022/07/21 04:56:53;;;;;;;1.93;1.93;;;;;;;25.19;54.18;99457.56;5135247;27;20197;-68
2022/07/21 04:59:20;;;;;;;2.23;2.13;;;;;;;25.40;54.03;99466.13;5122242;27;20191;-69
2022/07/21 05:01:47;;;;;;;2.73;2.10;;;;;;;25.55;52.36;99467.41;5114166;28;20195;-69
2022/07/21 05:04:15;;;;;;;2.50;2.40;;;;;;;25.70;52.81;99467.78;5114821;27;20659;-69
2022/07/21 05:06:42;;;;;;;1.90;1.90;;;;;;;25.86;51.28;99469.84;5133449;27;20210;-69
2022/07/21 05:09:09;;;;;;;2.43;2.23;;;;;;;25.98;52.41;99466.91;5134988;27;20209;-69
2022/07/21 05:11:36;;;;;;;28.40;4.43;;;;;;;26.17;52.22;99468.72;5134175;27;20670;-68
2022/07/21 05:14:03;;;;;;;2.63;2.40;;;;;;;26.39;53.99;99476.22;5129332;27;20190;-69
2022/07/21 05:16:30;;;;;;;2.13;2.03;;;;;;;26.52;51.55;99462.75;5129080;27;20187;-69
2022/07/21 05:18:57;;;;;;;2.23;2.13;;;;;;;26.75;52.33;99466.66;5113980;28;20202;-69
2022/07/21 05:21:25;;;;;;;7.77;2.20;;;;;;;26.94;52.54;99465.72;5114499;28;20663;-69
2022/07/21 05:23:52;;;;;;;2.43;2.33;;;;;;;27.17;49.86;99469.59;5126515;27;20202;-69
2022/07/21 05:26:19;;;;;;;3.17;2.40;;;;;;;27.46;52.08;99464.13;5117908;27;20213;-70
2022/07/21 05:28:45;;;;;;;2.23;2.10;;;;;;;27.71;48.21;99471.25;5133299;27;20643;-69
2022/07/21 05:31:12;;;;;;;2.43;2.33;;;;;;;27.94;47.71;99471.56;5133025;27;20198;-70
2022/07/21 05:33:39;;;;;;;2.10;2.00;;;;;;;28.15;48.31;99475.50;5115406;27;20198;-70
2022/07/21 05:36:07;;;;;;;3.10;2.20;;;;;;;28.36;47.66;99466.41;5116908;27;20663;-70
2022/07/21 05:38:35;;;;;;;2.10;2.00;;;;;;;28.44;49.73;99469.06;5119517;27;20198;-70
2022/07/21 05:41:02;;;;;;;3.03;2.83;;;;;;;28.47;47.80;99466.09;5133176;27;20202;-70
2022/07/21 05:43:30;;;;;;;2.60;2.50;;;;;;;28.66;48.16;99469.34;5129968;27;20201;-70
2022/07/21 05:45:58;;;;;;;9.20;3.27;;;;;;;28.75;47.95;99464.94;5133003;27;20213;-70
2022/07/21 05:48:24;;;;;;;4.80;2.60;;;;;;;28.89;46.94;99464.31;5115902;27;20636;-70
2022/07/21 05:50:51;;;;;;;2.77;2.57;;;;;;;29.05;46.90;99469.63;5122666;27;20194;-70
2022/07/21 05:53:18;;;;;;;3.33;2.80;;;;;;;29.21;47.44;99468.03;5123557;27;20228;-70
2022/07/21 05:55:48;;;;;;;2.72;2.53;;;;;;;29.23;48.81;99466.03;5128908;27;20692;-72
2022/07/21 05:58:15;;;;;;;3.05;2.70;;;;;;;29.43;47.46;99465.59;5120142;27;20217;-69
2022/07/21 06:00:42;;;;;;;3.60;3.30;;;;;;;29.42;50.13;99463.09;5129782;27;20688;-70
2022/07/21 06:03:09;;;;;;;2.93;2.73;;;;;;;29.56;48.78;99458.00;5125828;27;20202;-70
2022/07/21 06:05:36;;;;;;;3.60;3.30;;;;;;;29.58;47.18;99463.09;5121006;27;20214;-69
2022/07/21 06:08:03;;;;;;;3.45;3.20;;;;;;;29.73;47.11;99458.78;5124117;27;20226;-72
2022/07/21 06:10:30;;;;;;;3.78;3.47;;;;;;;29.70;47.29;99448.56;5118915;27;20205;-72
2022/07/21 06:12:58;;;;;;;4.40;3.88;;;;;;;29.80;44.86;99453.66;5123567;27;20574;-73
2022/07/21 06:15:25;;;;;;;3.83;3.60;;;;;;;29.73;43.86;99447.41;5116942;27;20570;-73
2022/07/21 06:17:52;;;;;;;4.43;4.03;;;;;;;29.68;42.80;99447.91;5116357;27;20198;-72
2022/07/21 06:20:19;;;;;;;4.40;4.03;;;;;;;29.63;42.67;99443.13;5119613;27;20194;-72
2022/07/21 06:22:46;;;;;;;4.15;3.78;;;;;;;29.68;44.53;99440.81;5125142;27;20199;-72
2022/07/21 06:25:13;;;;;;;4.53;4.27;;;;;;;29.87;41.65;99447.59;5120332;27;20581;-72
2022/07/21 06:27:40;;;;;;;3.85;3.65;;;;;;;29.84;41.15;99445.28;5117620;27;20202;-74
2022/07/21 06:30:09;;;;;;;4.60;4.15;;;;;;;29.82;41.99;99436.66;5126126;27;20207;-74
2022/07/21 06:32:36;;;;;;;4.97;3.50;;;;;;;29.89;43.72;99437.66;5118757;27;20209;-72
2022/07/21 06:35:04;;;;;;;3.08;2.88;;;;;;;29.99;40.98;99440.94;5116087;27;20662;-74
2022/07/21 06:37:30;;;;;;;3.17;2.83;;;;;;;30.03;41.83;99439.63;5129608;27;20198;-70
2022/07/21 06:39:57;;;;;;;2.17;1.98;;;;;;;30.03;42.61;99439.63;5122650;27;20244;-72
2022/07/21 06:42:24;;;;;;;2.38;2.10;;;;;;;30.14;41.98;99431.34;5130567;27;20208;-72
2022/07/21 06:44:51;;;;;;;1.95;1.85;;;;;;;30.28;40.31;99426.31;5131142;27;20650;-71
2022/07/21 06:47:20;;;;;;;4.95;2.25;;;;;;;30.33;41.68;99419.53;5119186;27;20225;-72
2022/07/21 06:49:48;;;;;;;1.83;1.73;;;;;;;30.49;42.06;99426.59;5131636;27;20218;-71
2022/07/21 06:52:15;;;;;;;1.95;1.85;;;;;;;30.60;39.79;99410.31;5125779;27;20657;-72
2022/07/21 06:54:41;;;;;;;8.88;2.10;;;;;;;30.76;40.83;99414.72;5126367;27;20593;-73
2022/07/21 06:57:09;;;;;;;2.53;1.98;;;;;;;30.78;40.10;99416.19;5128896;27;20284;-72
2022/07/21 06:59:35;;;;;;;3.78;1.80;;;;;;;30.76;37.69;99420.81;5127549;27;20206;-72
2022/07/21 07:02:02;;;;;;;4.22;2.00;;;;;;;30.85;39.32;99418.97;5127199;27;20213;-71
2022/07/21 07:04:30;;;;;;;2.17;1.92;;;;;;;31.00;40.78;99412.75;5130513;27;20216;-72
2022/07/21 07:06:57;;;;;;;2.17;2.08;;;;;;;31.14;40.51;99392.63;5127425;27;20218;-72
2022/07/21 07:09:25;;;;;;;2.13;2.03;;;;;;;31.44;38.04;99404.16;5120473;27;20198;-73
2022/07/21 07:11:52;;;;;;;2.88;2.13;;;;;;;31.48;41.32;99402.75;5121297;27;20222;-73
2022/07/21 07:14:20;;;;;;;2.05;1.95;;;;;;;31.59;39.72;99403.19;5123841;27;20556;-73
2022/07/21 07:16:47;;;;;;;5.95;2.08;;;;;;;31.72;38.99;99394.63;5125050;27;20212;-73
2022/07/21 07:19:14;;;;;;;2.13;2.00;;;;;;;31.78;37.68;99401.84;5124560;27;20581;-73
2022/07/21 07:21:42;;;;;;;2.28;2.17;;;;;;;31.78;37.38;99396.53;5123494;27;20211;-73
2022/07/21 07:24:09;;;;;;;4.63;2.40;;;;;;;31.87;37.79;99394.63;5120312;27;20202;-72
2022/07/21 07:26:36;;;;;;;4.95;2.60;;;;;;;31.98;38.20;99392.34;5121308;27;20214;-72
2022/07/21 07:29:03;;;;;;;2.30;2.20;;;;;;;32.14;38.73;99392.19;5123503;27;20247;-73
2022/07/21 07:31:30;;;;;;;3.35;2.15;;;;;;;32.27;37.94;99396.03;5120419;27;20210;-74
2022/07/21 07:33:57;;;;;;;19.10;3.45;;;;;;;32.41;38.08;99397.84;5121438;27;20205;-75
2022/07/21 07:36:24;;;;;;;2.58;2.00;;;;;;;32.56;37.08;99391.47;5113617;27;20194;-74
2022/07/21 07:38:53;;;;;;;3.78;2.05;;;;;;;32.88;37.53;99395.53;5128728;27;20205;-75
2022/07/21 07:41:20;;;;;;;1.55;1.45;;;;;;;32.91;35.15;99395.16;5126995;27;20266;-72
2022/07/21 07:43:47;;;;;;;1.55;1.45;;;;;;;33.06;36.12;99387.94;5123900;27;20210;-75
2022/07/21 07:46:14;;;;;;;1.90;1.80;;;;;;;33.25;36.53;99403.25;5120044;27;20215;-73
2022/07/21 07:48:42;;;;;;;1.85;1.60;;;;;;;33.54;36.34;99394.28;5125972;27;20202;-71
2022/07/21 07:51:09;;;;;;;1.85;1.75;;;;;;;33.87;35.60;99391.06;5126082;27;20246;-71
2022/07/21 07:53:36;;;;;;;1.55;1.50;;;;;;;33.97;35.28;99392.34;5125127;27;20203;-75
2022/07/21 07:56:05;;;;;;;2.00;1.90;;;;;;;34.02;35.42;99379.31;5121359;27;20198;-74
2022/07/21 07:58:32;;;;;;;1.75;1.65;;;;;;;34.11;33.10;99377.31;5115599;27;20224;-74
2022/07/21 08:00:59;;;;;;;2.08;1.85;;;;;;;34.24;36.85;99380.03;5118716;27;20571;-73
2022/07/21 08:03:27;;;;;;;2.10;1.90;;;;;;;34.45;33.45;99379.06;5113460;28;20195;-72
2022/07/21 08:05:58;;;;;;;2.05;1.85;;;;;;;34.70;34.53;99377.56;5113964;27;20199;-73
2022/07/21 08:08:25;;;;;;;1.88;1.80;;;;;;;34.72;33.78;99373.66;5114735;27;20289;-72
2022/07/21 08:10:52;;;;;;;1.90;1.80;;;;;;;34.85;36.70;99370.22;5115123;27;20217;-72
2022/07/21 08:13:20;;;;;;;1.75;1.65;;;;;;;34.79;32.97;99365.69;5130781;27;20198;-73
2022/07/21 08:15:49;;;;;;;2.55;1.98;;;;;;;34.86;33.49;99339.91;5124384;27;20300;-72
2022/07/21 08:18:18;;;;;;;1.85;1.80;;;;;;;35.09;33.39;99358.94;5112145;28;20209;-72
2022/07/21 08:20:45;;;;;;;2.15;1.55;;;;;;;35.29;35.64;99362.47;5114021;28;20581;-76
2022/07/21 08:23:13;;;;;;;6.43;1.90;;;;;;;35.49;33.74;99361.63;5112960;28;20263;-74
2022/07/21 08:25:41;;;;;;;2.17;2.08;;;;;;;35.64;34.40;99359.59;5112465;28;20665;-73
2022/07/21 08:28:09;;;;;;;1.75;1.65;;;;;;;35.86;32.98;99352.97;5113800;28;20214;-73
2022/07/21 08:30:38;;;;;;;2.67;2.47;;;;;;;36.25;29.66;99363.53;5115082;28;20720;-72
2022/07/21 08:33:05;;;;;;;3.13;2.22;;;;;;;36.37;31.78;99357.53;5116933;28;20780;-68
2022/07/21 08:35:33;;;;;;;2.72;1.73;;;;;;;36.35;33.01;99351.59;5119901;28;20562;-69
2022/07/21 08:38:02;;;;;;;2.75;1.90;;;;;;;36.48;30.72;99357.66;5121300;28;20203;-68
2022/07/21 08:40:30;;;;;;;1.83;1.73;;;;;;;36.45;33.26;99357.28;5115000;28;20202;-69
2022/07/21 08:42:57;;;;;;;2.22;2.13;;;;;;;36.35;31.02;99356.94;5117124;28;20310;-68
2022/07/21 08:45:27;;;;;;;10.20;2.00;;;;;;;36.38;30.15;99354.66;5117689;28;20202;-69
2022/07/21 08:47:57;;;;;;;2.95;1.70;;;;;;;36.65;30.48;99353.50;5126086;28;20304;-68
2022/07/21 08:50:27;;;;;;;2.83;1.83;;;;;;;36.89;29.52;99356.41;5118179;28;20497;-67
2022/07/21 08:52:54;;;;;;;1.73;1.60;;;;;;;37.12;29.46;99349.50;5120851;28;20229;-65
2022/07/21 08:55:21;;;;;;;1.50;1.50;;;;;;;37.25;28.24;99354.72;5113324;28;20210;-67
2022/07/21 08:57:47;;;;;;;1.80;1.70;;;;;;;37.27;29.23;99357.16;5113560;28;20206;-69
2022/07/21 09:00:15;;;;;;;2.17;2.03;;;;;;;37.25;29.09;99335.19;5128503;28;20198;-69
2022/07/21 09:02:42;;;;;;;1.83;1.77;;;;;;;37.42;30.15;99348.81;5112406;28;20195;-69
2022/07/21 09:05:11;;;;;;;1.55;1.55;;;;;;;37.57;31.22;99335.94;5125247;28;20209;-69
2022/07/21 09:07:49;;;;;;;1.95;1.85;;;;;;;37.64;27.52;99342.84;5121321;27;20698;-69
2022/07/21 09:10:16;;;;;;;15.38;2.80;;;;;;;37.75;27.91;99339.44;5133081;27;20424;-70
2022/07/21 09:12:51;;;;;;;3.00;2.47;;;;;;;38.07;26.99;99337.44;5124384;27;20458;-67
2022/07/21 09:15:20;;;;;;;2.13;2.03;;;;;;;38.21;27.95;99332.72;5120738;27;20646;-68
2022/07/21 09:18:03;;;;;;;1.98;1.88;;;;;;;38.00;30.49;99327.88;5129856;27;20198;-67
2022/07/21 09:20:31;;;;;;;2.42;2.05;;;;;;;38.02;28.83;99329.28;5123882;27;20214;-67
2022/07/21 09:23:09;;;;;;;2.08;1.98;;;;;;;38.22;26.99;99329.84;5123042;27;20202;-67
2022/07/21 09:25:39;;;;;;;9.20;3.08;;;;;;;38.27;27.30;99331.81;5128428;27;20587;-68
2022/07/21 09:28:14;;;;;;;4.70;2.30;;;;;;;37.92;28.78;99328.97;5130593;27;20225;-68
2022/07/21 09:30:53;;;;;;;2.13;2.13;;;;;;;37.86;27.90;99319.16;5129702;27;20565;-66
2022/07/21 09:33:22;;;;;;;3.00;2.88;;;;;;;37.98;28.45;99317.38;5132306;27;20210;-67
2022/07/21 09:35:58;;;;;;;1.88;1.77;;;;;;;38.34;27.25;99316.50;5132031;27;20202;-66
2022/07/21 09:38:25;;;;;;;1.85;1.75;;;;;;;38.50;27.24;99309.69;5131903;27;20202;-67
2022/07/21 09:40:52;;;;;;;2.50;2.30;;;;;;;38.33;27.67;99320.19;5132514;27;20251;-67
2022/07/21 09:43:41;;;;;;;2.30;2.20;;;;;;;38.38;28.22;99312.34;5121057;27;20213;-67
2022/07/21 09:46:11;;;;;;;2.47;2.25;;;;;;;38.07;27.53;99310.66;5129544;27;20216;-67
2022/07/21 09:48:40;;;;;;;4.00;2.53;;;;;;;38.11;29.08;99306.50;5132356;27;20218;-67
2022/07/21 09:51:28;;;;;;;6.05;2.67;;;;;;;38.31;29.19;99304.38;5129643;27;20210;-67
2022/07/21 09:53:58;;;;;;;1.95;1.85;;;;;;;38.56;25.42;99306.09;5130029;27;20208;-67
2022/07/21 09:56:26;;;;;;;2.00;1.90;;;;;;;38.72;25.75;99302.75;5121702;27;20203;-67
2022/07/21 09:58:55;;;;;;;3.13;2.20;;;;;;;38.84;27.96;99308.97;5116062;27;20210;-67
2022/07/21 10:01:23;;;;;;;2.10;2.00;;;;;;;38.74;27.64;99306.84;5124393;27;20194;-67
2022/07/21 10:03:51;;;;;;;3.15;2.92;;;;;;;38.79;25.90;99309.66;5124075;27;20194;-67
2022/07/21 10:06:30;;;;;;;3.60;3.45;;;;;;;38.73;26.09;99304.41;5123991;27;20677;-67
2022/07/21 10:09:00;;;;;;;2.35;2.25;;;;;;;38.86;25.16;99304.22;5120504;27;20197;-69
2022/07/21 10:11:28;;;;;;;3.53;3.22;;;;;;;39.06;28.17;99294.00;5123711;27;20210;-67
2022/07/21 10:13:55;;;;;;;2.67;2.08;;;;;;;38.93;25.15;99271.94;5122156;27;20202;-67
2022/07/21 10:16:23;;;;;;;2.35;2.17;;;;;;;38.97;24.28;99284.63;5120548;27;20199;-69
2022/07/21 10:19:01;;;;;;;1.92;1.92;;;;;;;38.95;25.01;99283.25;5115742;27;20203;-68
2022/07/21 10:21:37;;;;;;;1.95;1.88;;;;;;;39.04;24.02;99288.03;5118168;27;20221;-69
2022/07/21 10:24:06;;;;;;;2.60;2.25;;;;;;;39.20;24.67;99283.81;5117364;27;20255;-68
2022/07/21 10:26:33;;;;;;;2.13;2.03;;;;;;;39.29;25.95;99277.91;5117444;27;20203;-67
2022/07/21 10:29:00;;;;;;;2.08;1.98;;;;;;;39.32;27.54;99274.75;5115222;27;20556;-68
2022/07/21 10:31:28;;;;;;;4.60;3.00;;;;;;;39.28;26.34;99273.59;5121264;27;20217;-68
2022/07/21 10:33:58;;;;;;;3.65;2.20;;;;;;;39.44;25.84;99268.56;5127717;27;20665;-68
2022/07/21 10:36:44;;;;;;;2.60;2.05;;;;;;;39.19;23.83;99269.63;5116164;27;20195;-67
2022/07/21 10:39:25;;;;;;;2.10;2.00;;;;;;;38.63;24.46;99263.94;5112091;27;20628;-67
2022/07/21 10:41:59;;;;;;;2.42;2.33;;;;;;;38.44;26.09;99255.19;5129441;27;20202;-67
2022/07/21 10:44:46;;;;;;;2.00;1.88;;;;;;;38.41;24.46;99257.50;5119452;27;20224;-67
2022/07/21 10:47:15;;;;;;;3.58;2.60;;;;;;;38.48;26.26;99247.50;5112087;27;20245;-68
2022/07/21 10:49:44;;;;;;;2.22;2.13;;;;;;;38.72;25.91;99252.66;5112531;27;20198;-68
2022/07/21 10:52:49;;;;;;;2.30;2.20;;;;;;;38.66;25.21;99250.09;5112216;27;20271;-67
2022/07/21 10:55:26;;;;;;;2.20;2.10;;;;;;;38.69;25.40;99247.75;5131260;27;20296;-68
2022/07/21 10:58:18;;;;;;;3.20;2.10;;;;;;;38.99;24.91;99257.59;5131635;27;20204;-67
2022/07/21 11:00:50;;;;;;;2.25;2.15;;;;;;;39.08;25.01;99253.53;5130237;27;20198;-68
2022/07/21 11:03:25;;;;;;;2.20;2.10;;;;;;;39.04;25.59;99242.44;5117612;27;20202;-68
2022/07/21 11:06:16;;;;;;;7.68;3.00;;;;;;;39.02;27.98;99239.19;5120462;27;20190;-68
2022/07/21 11:08:44;;;;;;;2.75;2.65;;;;;;;39.22;25.85;99236.97;5114602;27;20598;-68
2022/07/21 11:11:13;;;;;;;2.15;2.05;;;;;;;39.30;25.79;99241.97;5120810;27;20590;-68
2022/07/21 11:14:05;;;;;;;2.55;2.45;;;;;;;39.40;28.31;99240.56;5127178;27;20201;-68
2022/07/21 11:17:08;;;;;;;2.03;1.95;;;;;;;39.50;27.36;99230.03;5114938;27;20190;-67
2022/07/21 11:19:39;;;;;;;2.28;2.08;;;;;;;38.83;24.15;99229.63;5129537;27;20193;-67
2022/07/21 11:22:11;;;;;;;2.05;1.95;;;;;;;38.05;25.38;99226.25;5132919;27;20224;-67
2022/07/21 11:24:38;;;;;;;1.90;1.90;;;;;;;38.17;25.69;99235.97;5120305;27;20204;-67
2022/07/21 11:27:08;;;;;;;2.17;2.10;;;;;;;37.95;25.18;99229.50;5125126;27;20226;-67
2022/07/21 11:29:37;;;;;;;2.05;1.95;;;;;;;37.79;25.26;99230.09;5123152;27;20202;-67
2022/07/21 11:32:05;;;;;;;3.42;2.30;;;;;;;37.81;25.47;99234.16;5120959;27;20202;-67
2022/07/21 11:34:39;;;;;;;2.03;1.92;;;;;;;37.96;25.83;99201.69;5119224;27;20586;-68
2022/07/21 11:37:06;;;;;;;2.08;1.98;;;;;;;38.38;26.56;99225.81;5119584;27;20198;-67
2022/07/21 11:39:34;;;;;;;2.75;2.55;;;;;;;38.41;26.90;99228.03;5122180;27;20204;-68
2022/07/21 11:42:04;;;;;;;2.22;2.03;;;;;;;38.30;25.81;99218.88;5125369;27;20210;-67
2022/07/21 11:44:33;;;;;;;2.08;1.98;;;;;;;37.96;26.21;99212.38;5121676;27;20647;-67